sensor_id;sensor_type;location;lat;lon;timestamp;P1;durP1;ratioP1;P2;durP2;ratioP2
7076;SDS011;3579;48.956;9.154;2023-05-20T00:02:14;1.30;;;1.20;;
7076;SDS011;3579;48.956;9.154;2023-05-20T00:04:40;1.23;;;1.13;;
7076;SDS011;3579;48.956;9.154;2023-05-20T00:07:08;1.33;;;1.23;;
7076;SDS011;3579;48.956;9.154;2023-05-20T00:09:34;1.30;;;1.20;;
7076;SDS011;3579;48.956;9.154;2023-05-20T00:12:00;1.47;;;1.10;;
7076;SDS011;3579;48.956;9.154;2023-05-20T00:14:26;1.23;;;1.13;;
7076;SDS011;3579;48.956;9.154;2023-05-20T00:16:52;1.43;;;1.33;;
7076;SDS011;3579;48.956;9.154;2023-05-20T00:19:18;1.30;;;1.20;;
7076;SDS011;3579;48.956;9.154;2023-05-20T00:21:44;1.30;;;1.20;;
7076;SDS011;3579;48.956;9.154;2023-05-20T00:24:10;1.33;;;1.20;;
7076;SDS011;3579;48.956;9.154;2023-05-20T00:26:36;1.30;;;1.20;;
7076;SDS011;3579;48.956;9.154;2023-05-20T00:29:02;1.30;;;1.20;;
7076;SDS011;3579;48.956;9.154;2023-05-20T00:31:28;1.30;;;1.20;;
7076;SDS011;3579;48.956;9.154;2023-05-20T00:33:54;1.20;;;1.10;;
7076;SDS011;3579;48.956;9.154;2023-05-20T00:36:20;1.37;;;1.27;;
7076;SDS011;3579;48.956;9.154;2023-05-20T00:38:46;1.37;;;1.27;;
7076;SDS011;3579;48.956;9.154;2023-05-20T00:41:12;1.20;;;1.10;;
7076;SDS011;3579;48.956;9.154;2023-05-20T00:43:38;1.20;;;1.10;;
7076;SDS011;3579;48.956;9.154;2023-05-20T00:46:04;1.30;;;1.20;;
7076;SDS011;3579;48.956;9.154;2023-05-20T00:48:31;1.20;;;1.10;;
7076;SDS011;3579;48.956;9.154;2023-05-20T00:51:05;1.20;;;1.10;;
7076;SDS011;3579;48.956;9.154;2023-05-20T00:53:32;1.30;;;1.17;;
7076;SDS011;3579;48.956;9.154;2023-05-20T00:55:59;1.13;;;1.03;;
7076;SDS011;3579;48.956;9.154;2023-05-20T00:58:26;1.20;;;1.10;;
7076;SDS011;3579;48.956;9.154;2023-05-20T01:00:52;1.30;;;1.20;;
7076;SDS011;3579;48.956;9.154;2023-05-20T01:03:19;1.37;;;1.20;;
7076;SDS011;3579;48.956;9.154;2023-05-20T01:05:45;1.20;;;1.10;;
7076;SDS011;3579;48.956;9.154;2023-05-20T01:08:11;1.20;;;1.10;;
7076;SDS011;3579;48.956;9.154;2023-05-20T01:10:38;1.20;;;1.10;;
7076;SDS011;3579;48.956;9.154;2023-05-20T01:13:11;1.23;;;1.10;;
7076;SDS011;3579;48.956;9.154;2023-05-20T01:15:41;1.30;;;1.10;;
7076;SDS011;3579;48.956;9.154;2023-05-20T01:18:10;1.20;;;1.10;;
7076;SDS011;3579;48.956;9.154;2023-05-20T01:20:43;1.20;;;1.10;;
7076;SDS011;3579;48.956;9.154;2023-05-20T01:23:13;1.13;;;1.00;;
7076;SDS011;3579;48.956;9.154;2023-05-20T01:25:40;1.10;;;1.00;;
7076;SDS011;3579;48.956;9.154;2023-05-20T01:28:06;1.30;;;1.20;;
7076;SDS011;3579;48.956;9.154;2023-05-20T01:30:42;1.30;;;1.20;;
7076;SDS011;3579;48.956;9.154;2023-05-20T01:33:16;1.20;;;1.10;;
7076;SDS011;3579;48.956;9.154;2023-05-20T01:35:45;1.30;;;1.20;;
7076;SDS011;3579;48.956;9.154;2023-05-20T01:38:12;1.30;;;1.20;;
7076;SDS011;3579;48.956;9.154;2023-05-20T01:40:40;1.33;;;1.23;;
7076;SDS011;3579;48.956;9.154;2023-05-20T01:43:07;1.10;;;1.00;;
7076;SDS011;3579;48.956;9.154;2023-05-20T01:45:33;1.27;;;1.17;;
7076;SDS011;3579;48.956;9.154;2023-05-20T01:48:00;1.60;;;1.07;;
7076;SDS011;3579;48.956;9.154;2023-05-20T01:50:27;1.20;;;1.10;;
7076;SDS011;3579;48.956;9.154;2023-05-20T01:52:53;1.17;;;1.07;;
7076;SDS011;3579;48.956;9.154;2023-05-20T01:55:19;1.33;;;1.10;;
7076;SDS011;3579;48.956;9.154;2023-05-20T01:57:45;1.37;;;1.20;;
7076;SDS011;3579;48.956;9.154;2023-05-20T02:00:11;1.20;;;1.10;;
7076;SDS011;3579;48.956;9.154;2023-05-20T02:02:37;1.73;;;1.20;;
7076;SDS011;3579;48.956;9.154;2023-05-20T02:05:03;1.20;;;1.10;;
7076;SDS011;3579;48.956;9.154;2023-05-20T02:07:30;1.30;;;1.20;;
7076;SDS011;3579;48.956;9.154;2023-05-20T02:09:56;1.40;;;1.30;;
7076;SDS011;3579;48.956;9.154;2023-05-20T02:12:22;1.37;;;1.27;;
7076;SDS011;3579;48.956;9.154;2023-05-20T02:14:48;1.37;;;1.23;;
7076;SDS011;3579;48.956;9.154;2023-05-20T02:17:15;1.30;;;1.20;;
7076;SDS011;3579;48.956;9.154;2023-05-20T02:19:42;1.30;;;1.20;;
7076;SDS011;3579;48.956;9.154;2023-05-20T02:22:09;1.40;;;1.30;;
7076;SDS011;3579;48.956;9.154;2023-05-20T02:24:35;1.10;;;1.00;;
7076;SDS011;3579;48.956;9.154;2023-05-20T02:27:01;1.13;;;1.03;;
7076;SDS011;3579;48.956;9.154;2023-05-20T02:29:29;1.43;;;1.10;;
7076;SDS011;3579;48.956;9.154;2023-05-20T02:31:55;1.40;;;1.30;;
7076;SDS011;3579;48.956;9.154;2023-05-20T02:34:21;1.20;;;1.10;;
7076;SDS011;3579;48.956;9.154;2023-05-20T02:36:47;1.77;;;1.23;;
7076;SDS011;3579;48.956;9.154;2023-05-20T02:39:13;1.13;;;1.03;;
7076;SDS011;3579;48.956;9.154;2023-05-20T02:41:39;1.20;;;1.10;;
7076;SDS011;3579;48.956;9.154;2023-05-20T02:44:05;1.27;;;1.17;;
7076;SDS011;3579;48.956;9.154;2023-05-20T02:46:31;1.20;;;1.10;;
7076;SDS011;3579;48.956;9.154;2023-05-20T02:48:58;1.30;;;1.20;;
7076;SDS011;3579;48.956;9.154;2023-05-20T02:51:24;1.20;;;1.10;;
7076;SDS011;3579;48.956;9.154;2023-05-20T02:53:50;1.20;;;1.10;;
7076;SDS011;3579;48.956;9.154;2023-05-20T02:56:16;1.67;;;1.37;;
7076;SDS011;3579;48.956;9.154;2023-05-20T02:58:45;1.20;;;1.10;;
7076;SDS011;3579;48.956;9.154;2023-05-20T03:01:12;1.73;;;1.20;;
7076;SDS011;3579;48.956;9.154;2023-05-20T03:03:38;1.30;;;1.20;;
7076;SDS011;3579;48.956;9.154;2023-05-20T03:06:05;1.20;;;1.10;;
7076;SDS011;3579;48.956;9.154;2023-05-20T03:08:31;1.30;;;1.20;;
7076;SDS011;3579;48.956;9.154;2023-05-20T03:10:59;1.63;;;1.10;;
7076;SDS011;3579;48.956;9.154;2023-05-20T03:13:25;1.40;;;1.30;;
7076;SDS011;3579;48.956;9.154;2023-05-20T03:15:51;1.20;;;1.10;;
7076;SDS011;3579;48.956;9.154;2023-05-20T03:18:17;1.17;;;1.07;;
7076;SDS011;3579;48.956;9.154;2023-05-20T03:20:44;1.30;;;1.20;;
7076;SDS011;3579;48.956;9.154;2023-05-20T03:23:11;1.23;;;1.10;;
7076;SDS011;3579;48.956;9.154;2023-05-20T03:25:37;1.23;;;1.13;;
7076;SDS011;3579;48.956;9.154;2023-05-20T03:28:04;1.20;;;1.10;;
7076;SDS011;3579;48.956;9.154;2023-05-20T03:30:31;1.27;;;1.17;;
7076;SDS011;3579;48.956;9.154;2023-05-20T03:32:57;1.20;;;1.00;;
7076;SDS011;3579;48.956;9.154;2023-05-20T03:35:23;1.20;;;1.10;;
7076;SDS011;3579;48.956;9.154;2023-05-20T03:37:50;1.20;;;1.10;;
7076;SDS011;3579;48.956;9.154;2023-05-20T03:40:17;1.33;;;1.23;;
7076;SDS011;3579;48.956;9.154;2023-05-20T03:42:47;1.60;;;1.30;;
7076;SDS011;3579;48.956;9.154;2023-05-20T03:45:14;1.50;;;1.30;;
7076;SDS011;3579;48.956;9.154;2023-05-20T03:47:40;1.13;;;1.03;;
7076;SDS011;3579;48.956;9.154;2023-05-20T03:50:06;1.27;;;1.17;;
7076;SDS011;3579;48.956;9.154;2023-05-20T03:52:32;1.47;;;1.33;;
7076;SDS011;3579;48.956;9.154;2023-05-20T03:54:59;1.40;;;1.30;;
7076;SDS011;3579;48.956;9.154;2023-05-20T03:57:25;1.50;;;1.10;;
7076;SDS011;3579;48.956;9.154;2023-05-20T03:59:51;1.20;;;1.10;;
7076;SDS011;3579;48.956;9.154;2023-05-20T04:02:17;1.00;;;0.90;;
7076;SDS011;3579;48.956;9.154;2023-05-20T04:04:43;1.30;;;1.20;;
7076;SDS011;3579;48.956;9.154;2023-05-20T04:07:09;1.20;;;1.10;;
7076;SDS011;3579;48.956;9.154;2023-05-20T04:09:36;1.30;;;1.20;;
7076;SDS011;3579;48.956;9.154;2023-05-20T04:12:03;1.40;;;1.30;;
7076;SDS011;3579;48.956;9.154;2023-05-20T04:14:32;1.27;;;1.17;;
7076;SDS011;3579;48.956;9.154;2023-05-20T04:17:01;1.30;;;1.20;;
7076;SDS011;3579;48.956;9.154;2023-05-20T04:19:27;1.30;;;1.20;;
7076;SDS011;3579;48.956;9.154;2023-05-20T04:21:54;1.27;;;1.17;;
7076;SDS011;3579;48.956;9.154;2023-05-20T04:24:21;1.37;;;1.27;;
7076;SDS011;3579;48.956;9.154;2023-05-20T04:26:50;1.33;;;1.23;;
7076;SDS011;3579;48.956;9.154;2023-05-20T04:29:17;1.30;;;1.20;;
7076;SDS011;3579;48.956;9.154;2023-05-20T04:31:44;1.23;;;1.10;;
7076;SDS011;3579;48.956;9.154;2023-05-20T04:34:10;1.37;;;1.17;;
7076;SDS011;3579;48.956;9.154;2023-05-20T04:36:37;1.20;;;1.10;;
7076;SDS011;3579;48.956;9.154;2023-05-20T04:39:03;1.30;;;1.20;;
7076;SDS011;3579;48.956;9.154;2023-05-20T04:41:30;1.47;;;1.20;;
7076;SDS011;3579;48.956;9.154;2023-05-20T04:43:56;1.10;;;1.00;;
7076;SDS011;3579;48.956;9.154;2023-05-20T04:46:26;1.37;;;1.27;;
7076;SDS011;3579;48.956;9.154;2023-05-20T04:48:52;1.57;;;1.40;;
7076;SDS011;3579;48.956;9.154;2023-05-20T04:51:18;1.20;;;1.10;;
7076;SDS011;3579;48.956;9.154;2023-05-20T04:53:44;1.20;;;1.10;;
7076;SDS011;3579;48.956;9.154;2023-05-20T04:56:10;1.20;;;1.10;;
7076;SDS011;3579;48.956;9.154;2023-05-20T04:58:37;1.13;;;1.03;;
7076;SDS011;3579;48.956;9.154;2023-05-20T05:01:04;1.23;;;1.13;;
7076;SDS011;3579;48.956;9.154;2023-05-20T05:03:31;1.20;;;1.10;;
7076;SDS011;3579;48.956;9.154;2023-05-20T05:05:57;1.20;;;1.10;;
7076;SDS011;3579;48.956;9.154;2023-05-20T05:08:23;1.20;;;1.10;;
7076;SDS011;3579;48.956;9.154;2023-05-20T05:10:51;1.33;;;1.23;;
7076;SDS011;3579;48.956;9.154;2023-05-20T05:13:17;1.60;;;1.33;;
7076;SDS011;3579;48.956;9.154;2023-05-20T05:15:43;1.30;;;1.20;;
7076;SDS011;3579;48.956;9.154;2023-05-20T05:18:09;1.30;;;1.20;;
7076;SDS011;3579;48.956;9.154;2023-05-20T05:20:35;1.10;;;1.00;;
7076;SDS011;3579;48.956;9.154;2023-05-20T05:23:01;1.20;;;1.10;;
7076;SDS011;3579;48.956;9.154;2023-05-20T05:25:27;1.30;;;1.20;;
7076;SDS011;3579;48.956;9.154;2023-05-20T05:27:53;1.20;;;1.10;;
7076;SDS011;3579;48.956;9.154;2023-05-20T05:30:19;1.07;;;0.97;;
7076;SDS011;3579;48.956;9.154;2023-05-20T05:32:46;1.20;;;1.10;;
7076;SDS011;3579;48.956;9.154;2023-05-20T05:35:12;1.10;;;1.00;;
7076;SDS011;3579;48.956;9.154;2023-05-20T05:37:38;1.20;;;1.10;;
7076;SDS011;3579;48.956;9.154;2023-05-20T05:40:05;1.17;;;1.07;;
7076;SDS011;3579;48.956;9.154;2023-05-20T05:42:32;1.20;;;1.10;;
7076;SDS011;3579;48.956;9.154;2023-05-20T05:44:58;1.20;;;1.10;;
7076;SDS011;3579;48.956;9.154;2023-05-20T05:47:24;0.93;;;0.93;;
7076;SDS011;3579;48.956;9.154;2023-05-20T05:49:55;1.20;;;1.10;;
7076;SDS011;3579;48.956;9.154;2023-05-20T05:52:21;1.20;;;1.10;;
7076;SDS011;3579;48.956;9.154;2023-05-20T05:54:47;1.23;;;1.13;;
7076;SDS011;3579;48.956;9.154;2023-05-20T05:57:13;1.30;;;1.20;;
7076;SDS011;3579;48.956;9.154;2023-05-20T05:59:39;1.20;;;1.10;;
7076;SDS011;3579;48.956;9.154;2023-05-20T06:02:05;1.40;;;1.30;;
7076;SDS011;3579;48.956;9.154;2023-05-20T06:04:31;1.13;;;1.03;;
7076;SDS011;3579;48.956;9.154;2023-05-20T06:06:57;1.40;;;1.30;;
7076;SDS011;3579;48.956;9.154;2023-05-20T06:09:23;1.20;;;1.10;;
7076;SDS011;3579;48.956;9.154;2023-05-20T06:11:49;1.20;;;1.10;;
7076;SDS011;3579;48.956;9.154;2023-05-20T06:14:15;1.17;;;1.07;;
7076;SDS011;3579;48.956;9.154;2023-05-20T06:16:41;1.20;;;1.10;;
7076;SDS011;3579;48.956;9.154;2023-05-20T06:19:07;1.40;;;1.10;;
7076;SDS011;3579;48.956;9.154;2023-05-20T06:21:33;1.10;;;1.00;;
7076;SDS011;3579;48.956;9.154;2023-05-20T06:23:59;1.10;;;1.00;;
7076;SDS011;3579;48.956;9.154;2023-05-20T06:26:25;1.30;;;1.20;;
7076;SDS011;3579;48.956;9.154;2023-05-20T06:28:51;1.20;;;1.10;;
7076;SDS011;3579;48.956;9.154;2023-05-20T06:31:17;1.10;;;1.00;;
7076;SDS011;3579;48.956;9.154;2023-05-20T06:33:44;1.17;;;1.07;;
7076;SDS011;3579;48.956;9.154;2023-05-20T06:36:10;1.50;;;1.40;;
7076;SDS011;3579;48.956;9.154;2023-05-20T06:38:36;1.30;;;1.20;;
7076;SDS011;3579;48.956;9.154;2023-05-20T06:41:02;1.10;;;1.00;;
7076;SDS011;3579;48.956;9.154;2023-05-20T06:43:28;1.30;;;1.20;;
7076;SDS011;3579;48.956;9.154;2023-05-20T06:45:54;1.30;;;1.20;;
7076;SDS011;3579;48.956;9.154;2023-05-20T06:48:20;1.10;;;1.00;;
7076;SDS011;3579;48.956;9.154;2023-05-20T06:50:46;1.33;;;1.10;;
7076;SDS011;3579;48.956;9.154;2023-05-20T06:53:13;1.10;;;1.00;;
7076;SDS011;3579;48.956;9.154;2023-05-20T06:55:39;1.07;;;0.97;;
7076;SDS011;3579;48.956;9.154;2023-05-20T06:58:05;1.40;;;1.30;;
7076;SDS011;3579;48.956;9.154;2023-05-20T07:00:31;1.50;;;1.30;;
7076;SDS011;3579;48.956;9.154;2023-05-20T07:02:57;1.30;;;1.20;;
7076;SDS011;3579;48.956;9.154;2023-05-20T07:05:22;1.27;;;1.17;;
7076;SDS011;3579;48.956;9.154;2023-05-20T07:07:49;1.20;;;1.10;;
7076;SDS011;3579;48.956;9.154;2023-05-20T07:10:15;1.20;;;1.10;;
7076;SDS011;3579;48.956;9.154;2023-05-20T07:12:41;1.33;;;1.20;;
7076;SDS011;3579;48.956;9.154;2023-05-20T07:15:07;2.33;;;1.23;;
7076;SDS011;3579;48.956;9.154;2023-05-20T07:17:33;0.93;;;0.93;;
7076;SDS011;3579;48.956;9.154;2023-05-20T07:19:59;1.37;;;1.27;;
7076;SDS011;3579;48.956;9.154;2023-05-20T07:22:25;1.10;;;1.00;;
7076;SDS011;3579;48.956;9.154;2023-05-20T07:24:51;1.10;;;1.00;;
7076;SDS011;3579;48.956;9.154;2023-05-20T07:27:17;1.30;;;1.20;;
7076;SDS011;3579;48.956;9.154;2023-05-20T07:29:43;1.27;;;1.10;;
7076;SDS011;3579;48.956;9.154;2023-05-20T07:32:09;1.27;;;1.17;;
7076;SDS011;3579;48.956;9.154;2023-05-20T07:34:35;1.53;;;1.17;;
7076;SDS011;3579;48.956;9.154;2023-05-20T07:37:02;1.30;;;1.20;;
7076;SDS011;3579;48.956;9.154;2023-05-20T07:39:28;1.30;;;1.20;;
7076;SDS011;3579;48.956;9.154;2023-05-20T07:41:54;1.17;;;1.07;;
7076;SDS011;3579;48.956;9.154;2023-05-20T07:44:20;1.40;;;1.20;;
7076;SDS011;3579;48.956;9.154;2023-05-20T07:46:47;1.10;;;1.00;;
7076;SDS011;3579;48.956;9.154;2023-05-20T07:49:13;1.23;;;1.13;;
7076;SDS011;3579;48.956;9.154;2023-05-20T07:51:39;1.30;;;1.20;;
7076;SDS011;3579;48.956;9.154;2023-05-20T07:54:06;1.40;;;1.30;;
7076;SDS011;3579;48.956;9.154;2023-05-20T07:56:32;1.43;;;1.20;;
7076;SDS011;3579;48.956;9.154;2023-05-20T07:58:58;1.20;;;1.10;;
7076;SDS011;3579;48.956;9.154;2023-05-20T08:01:25;1.33;;;1.20;;
7076;SDS011;3579;48.956;9.154;2023-05-20T08:03:51;1.50;;;1.40;;
7076;SDS011;3579;48.956;9.154;2023-05-20T08:06:18;1.50;;;1.40;;
7076;SDS011;3579;48.956;9.154;2023-05-20T08:08:49;1.37;;;1.27;;
7076;SDS011;3579;48.956;9.154;2023-05-20T08:11:15;1.30;;;1.20;;
7076;SDS011;3579;48.956;9.154;2023-05-20T08:13:41;1.60;;;1.50;;
7076;SDS011;3579;48.956;9.154;2023-05-20T08:16:08;1.43;;;1.33;;
7076;SDS011;3579;48.956;9.154;2023-05-20T08:18:34;1.60;;;1.30;;
7076;SDS011;3579;48.956;9.154;2023-05-20T08:21:02;1.40;;;1.30;;
7076;SDS011;3579;48.956;9.154;2023-05-20T08:23:29;1.50;;;1.40;;
7076;SDS011;3579;48.956;9.154;2023-05-20T08:25:55;1.50;;;1.40;;
7076;SDS011;3579;48.956;9.154;2023-05-20T08:28:21;1.50;;;1.40;;
7076;SDS011;3579;48.956;9.154;2023-05-20T08:30:47;1.40;;;1.30;;
7076;SDS011;3579;48.956;9.154;2023-05-20T08:33:14;1.30;;;1.20;;
7076;SDS011;3579;48.956;9.154;2023-05-20T08:35:40;1.70;;;1.50;;
7076;SDS011;3579;48.956;9.154;2023-05-20T08:38:06;1.20;;;1.10;;
7076;SDS011;3579;48.956;9.154;2023-05-20T08:40:35;1.30;;;1.20;;
7076;SDS011;3579;48.956;9.154;2023-05-20T08:43:01;1.50;;;1.40;;
7076;SDS011;3579;48.956;9.154;2023-05-20T08:45:27;1.67;;;1.40;;
7076;SDS011;3579;48.956;9.154;2023-05-20T08:47:57;1.60;;;1.37;;
7076;SDS011;3579;48.956;9.154;2023-05-20T08:50:23;1.30;;;1.20;;
7076;SDS011;3579;48.956;9.154;2023-05-20T08:52:49;1.73;;;1.60;;
7076;SDS011;3579;48.956;9.154;2023-05-20T08:57:51;1.40;;;1.30;;
7076;SDS011;3579;48.956;9.154;2023-05-20T09:00:21;1.60;;;1.50;;
7076;SDS011;3579;48.956;9.154;2023-05-20T09:02:51;1.50;;;1.40;;
7076;SDS011;3579;48.956;9.154;2023-05-20T09:05:17;1.60;;;1.50;;
7076;SDS011;3579;48.956;9.154;2023-05-20T09:07:43;1.60;;;1.50;;
7076;SDS011;3579;48.956;9.154;2023-05-20T09:10:09;1.50;;;1.40;;
7076;SDS011;3579;48.956;9.154;2023-05-20T09:12:36;1.70;;;1.57;;
7076;SDS011;3579;48.956;9.154;2023-05-20T09:15:05;1.40;;;1.30;;
7076;SDS011;3579;48.956;9.154;2023-05-20T09:17:34;1.50;;;1.40;;
7076;SDS011;3579;48.956;9.154;2023-05-20T09:20:01;1.40;;;1.30;;
7076;SDS011;3579;48.956;9.154;2023-05-20T09:22:33;1.80;;;1.50;;
7076;SDS011;3579;48.956;9.154;2023-05-20T09:24:59;1.50;;;1.40;;
7076;SDS011;3579;48.956;9.154;2023-05-20T09:27:25;1.50;;;1.40;;
7076;SDS011;3579;48.956;9.154;2023-05-20T09:29:51;1.70;;;1.60;;
7076;SDS011;3579;48.956;9.154;2023-05-20T09:32:19;1.37;;;1.27;;
7076;SDS011;3579;48.956;9.154;2023-05-20T09:34:48;1.50;;;1.40;;
7076;SDS011;3579;48.956;9.154;2023-05-20T09:37:16;1.50;;;1.40;;
7076;SDS011;3579;48.956;9.154;2023-05-20T09:39:56;1.50;;;1.40;;
7076;SDS011;3579;48.956;9.154;2023-05-20T09:42:25;1.77;;;1.67;;
7076;SDS011;3579;48.956;9.154;2023-05-20T09:44:56;1.60;;;1.40;;
7076;SDS011;3579;48.956;9.154;2023-05-20T09:47:23;1.50;;;1.40;;
7076;SDS011;3579;48.956;9.154;2023-05-20T09:49:51;1.70;;;1.60;;
7076;SDS011;3579;48.956;9.154;2023-05-20T09:52:17;1.57;;;1.47;;
7076;SDS011;3579;48.956;9.154;2023-05-20T09:54:44;1.50;;;1.40;;
7076;SDS011;3579;48.956;9.154;2023-05-20T09:57:11;1.43;;;1.33;;
7076;SDS011;3579;48.956;9.154;2023-05-20T09:59:38;1.83;;;1.50;;
7076;SDS011;3579;48.956;9.154;2023-05-20T10:02:05;1.53;;;1.30;;
7076;SDS011;3579;48.956;9.154;2023-05-20T10:04:32;1.77;;;1.63;;
7076;SDS011;3579;48.956;9.154;2023-05-20T10:18:29;1.60;;;1.50;;
7076;SDS011;3579;48.956;9.154;2023-05-20T10:21:23;1.70;;;1.60;;
7076;SDS011;3579;48.956;9.154;2023-05-20T10:23:50;1.73;;;1.60;;
7076;SDS011;3579;48.956;9.154;2023-05-20T10:26:16;1.57;;;1.47;;
7076;SDS011;3579;48.956;9.154;2023-05-20T10:28:43;2.13;;;1.60;;
7076;SDS011;3579;48.956;9.154;2023-05-20T10:31:19;1.60;;;1.50;;
7076;SDS011;3579;48.956;9.154;2023-05-20T10:33:46;1.73;;;1.63;;
7076;SDS011;3579;48.956;9.154;2023-05-20T10:36:25;1.57;;;1.47;;
7076;SDS011;3579;48.956;9.154;2023-05-20T10:38:57;1.60;;;1.50;;
7076;SDS011;3579;48.956;9.154;2023-05-20T10:41:24;1.60;;;1.50;;
7076;SDS011;3579;48.956;9.154;2023-05-20T10:43:58;1.60;;;1.50;;
7076;SDS011;3579;48.956;9.154;2023-05-20T10:46:25;1.60;;;1.50;;
7076;SDS011;3579;48.956;9.154;2023-05-20T10:48:51;1.70;;;1.60;;
7076;SDS011;3579;48.956;9.154;2023-05-20T10:51:17;1.70;;;1.60;;
7076;SDS011;3579;48.956;9.154;2023-05-20T10:53:45;1.60;;;1.50;;
7076;SDS011;3579;48.956;9.154;2023-05-20T10:56:19;2.03;;;1.60;;
7076;SDS011;3579;48.956;9.154;2023-05-20T10:58:46;1.63;;;1.40;;
7076;SDS011;3579;48.956;9.154;2023-05-20T11:01:13;1.60;;;1.50;;
7076;SDS011;3579;48.956;9.154;2023-05-20T11:03:40;1.73;;;1.60;;
7076;SDS011;3579;48.956;9.154;2023-05-20T11:06:10;2.97;;;1.50;;
7076;SDS011;3579;48.956;9.154;2023-05-20T11:08:36;1.63;;;1.53;;
7076;SDS011;3579;48.956;9.154;2023-05-20T11:11:03;1.60;;;1.50;;
7076;SDS011;3579;48.956;9.154;2023-05-20T11:13:29;2.37;;;1.77;;
7076;SDS011;3579;48.956;9.154;2023-05-20T11:15:55;2.10;;;1.70;;
7076;SDS011;3579;48.956;9.154;2023-05-20T11:18:25;1.70;;;1.60;;
7076;SDS011;3579;48.956;9.154;2023-05-20T11:20:55;1.70;;;1.60;;
7076;SDS011;3579;48.956;9.154;2023-05-20T11:23:22;1.77;;;1.60;;
7076;SDS011;3579;48.956;9.154;2023-05-20T11:25:49;1.87;;;1.77;;
7076;SDS011;3579;48.956;9.154;2023-05-20T11:28:16;1.60;;;1.50;;
7076;SDS011;3579;48.956;9.154;2023-05-20T11:30:45;1.73;;;1.63;;
7076;SDS011;3579;48.956;9.154;2023-05-20T11:33:13;1.60;;;1.50;;
7076;SDS011;3579;48.956;9.154;2023-05-20T11:35:46;1.73;;;1.63;;
7076;SDS011;3579;48.956;9.154;2023-05-20T11:38:14;1.60;;;1.50;;
7076;SDS011;3579;48.956;9.154;2023-05-20T11:40:49;1.70;;;1.50;;
7076;SDS011;3579;48.956;9.154;2023-05-20T11:43:20;1.70;;;1.60;;
7076;SDS011;3579;48.956;9.154;2023-05-20T11:45:51;1.87;;;1.77;;
7076;SDS011;3579;48.956;9.154;2023-05-20T11:48:19;1.70;;;1.60;;
7076;SDS011;3579;48.956;9.154;2023-05-20T11:50:46;1.77;;;1.67;;
7076;SDS011;3579;48.956;9.154;2023-05-20T11:53:19;1.83;;;1.63;;
7076;SDS011;3579;48.956;9.154;2023-05-20T11:55:54;1.93;;;1.73;;
7076;SDS011;3579;48.956;9.154;2023-05-20T11:58:22;1.90;;;1.70;;
7076;SDS011;3579;48.956;9.154;2023-05-20T12:00:53;1.80;;;1.70;;
7076;SDS011;3579;48.956;9.154;2023-05-20T12:03:20;1.60;;;1.50;;
7076;SDS011;3579;48.956;9.154;2023-05-20T12:05:46;1.80;;;1.70;;
7076;SDS011;3579;48.956;9.154;2023-05-20T12:08:13;1.73;;;1.63;;
7076;SDS011;3579;48.956;9.154;2023-05-20T12:10:40;3.00;;;1.70;;
7076;SDS011;3579;48.956;9.154;2023-05-20T12:13:06;1.60;;;1.50;;
7076;SDS011;3579;48.956;9.154;2023-05-20T12:15:36;1.77;;;1.67;;
7076;SDS011;3579;48.956;9.154;2023-05-20T12:18:02;2.20;;;2.00;;
7076;SDS011;3579;48.956;9.154;2023-05-20T12:20:28;1.90;;;1.70;;
7076;SDS011;3579;48.956;9.154;2023-05-20T12:22:56;1.73;;;1.63;;
7076;SDS011;3579;48.956;9.154;2023-05-20T12:25:22;1.97;;;1.77;;
7076;SDS011;3579;48.956;9.154;2023-05-20T12:27:48;1.80;;;1.60;;
7076;SDS011;3579;48.956;9.154;2023-05-20T12:30:15;1.60;;;1.50;;
7076;SDS011;3579;48.956;9.154;2023-05-20T12:32:43;1.70;;;1.60;;
7076;SDS011;3579;48.956;9.154;2023-05-20T12:35:10;1.90;;;1.70;;
7076;SDS011;3579;48.956;9.154;2023-05-20T12:37:40;1.70;;;1.60;;
7076;SDS011;3579;48.956;9.154;2023-05-20T12:40:07;1.93;;;1.83;;
7076;SDS011;3579;48.956;9.154;2023-05-20T12:42:38;1.87;;;1.73;;
7076;SDS011;3579;48.956;9.154;2023-05-20T12:45:05;1.83;;;1.70;;
7076;SDS011;3579;48.956;9.154;2023-05-20T12:47:33;2.00;;;1.77;;
7076;SDS011;3579;48.956;9.154;2023-05-20T12:50:00;2.07;;;1.87;;
7076;SDS011;3579;48.956;9.154;2023-05-20T12:52:27;1.80;;;1.70;;
7076;SDS011;3579;48.956;9.154;2023-05-20T12:54:53;1.80;;;1.70;;
7076;SDS011;3579;48.956;9.154;2023-05-20T12:57:20;2.03;;;1.83;;
7076;SDS011;3579;48.956;9.154;2023-05-20T12:59:47;1.93;;;1.83;;
7076;SDS011;3579;48.956;9.154;2023-05-20T13:02:13;2.00;;;1.83;;
7076;SDS011;3579;48.956;9.154;2023-05-20T13:04:39;2.00;;;1.77;;
7076;SDS011;3579;48.956;9.154;2023-05-20T13:07:05;1.87;;;1.77;;
7076;SDS011;3579;48.956;9.154;2023-05-20T13:09:31;1.97;;;1.87;;
7076;SDS011;3579;48.956;9.154;2023-05-20T13:11:59;1.70;;;1.60;;
7076;SDS011;3579;48.956;9.154;2023-05-20T13:14:26;1.87;;;1.77;;
7076;SDS011;3579;48.956;9.154;2023-05-20T13:16:52;1.90;;;1.80;;
7076;SDS011;3579;48.956;9.154;2023-05-20T13:19:22;1.90;;;1.70;;
7076;SDS011;3579;48.956;9.154;2023-05-20T13:21:49;2.10;;;1.73;;
7076;SDS011;3579;48.956;9.154;2023-05-20T13:24:16;1.80;;;1.70;;
7076;SDS011;3579;48.956;9.154;2023-05-20T13:26:42;1.60;;;1.50;;
7076;SDS011;3579;48.956;9.154;2023-05-20T13:29:10;2.10;;;1.80;;
7076;SDS011;3579;48.956;9.154;2023-05-20T13:31:37;1.80;;;1.70;;
7076;SDS011;3579;48.956;9.154;2023-05-20T13:34:03;5.17;;;2.03;;
7076;SDS011;3579;48.956;9.154;2023-05-20T13:36:30;1.87;;;1.77;;
7076;SDS011;3579;48.956;9.154;2023-05-20T13:38:56;1.80;;;1.70;;
7076;SDS011;3579;48.956;9.154;2023-05-20T13:41:22;1.70;;;1.60;;
7076;SDS011;3579;48.956;9.154;2023-05-20T13:43:52;2.17;;;1.97;;
7076;SDS011;3579;48.956;9.154;2023-05-20T13:46:18;2.17;;;1.97;;
7076;SDS011;3579;48.956;9.154;2023-05-20T13:48:44;2.53;;;2.00;;
7076;SDS011;3579;48.956;9.154;2023-05-20T13:51:10;2.00;;;1.90;;
7076;SDS011;3579;48.956;9.154;2023-05-20T13:53:36;1.80;;;1.70;;
7076;SDS011;3579;48.956;9.154;2023-05-20T13:56:02;1.93;;;1.80;;
7076;SDS011;3579;48.956;9.154;2023-05-20T13:58:29;2.20;;;2.00;;
7076;SDS011;3579;48.956;9.154;2023-05-20T14:00:55;1.90;;;1.70;;
7076;SDS011;3579;48.956;9.154;2023-05-20T14:03:23;1.90;;;1.80;;
7076;SDS011;3579;48.956;9.154;2023-05-20T14:05:49;2.97;;;2.00;;
7076;SDS011;3579;48.956;9.154;2023-05-20T14:08:15;2.30;;;2.10;;
7076;SDS011;3579;48.956;9.154;2023-05-20T14:10:41;2.10;;;1.90;;
7076;SDS011;3579;48.956;9.154;2023-05-20T14:13:07;1.90;;;1.80;;
7076;SDS011;3579;48.956;9.154;2023-05-20T14:15:35;2.07;;;1.90;;
7076;SDS011;3579;48.956;9.154;2023-05-20T14:18:01;2.17;;;1.93;;
7076;SDS011;3579;48.956;9.154;2023-05-20T14:20:27;2.00;;;1.80;;
7076;SDS011;3579;48.956;9.154;2023-05-20T14:22:53;1.93;;;1.73;;
7076;SDS011;3579;48.956;9.154;2023-05-20T14:25:19;2.20;;;2.00;;
7076;SDS011;3579;48.956;9.154;2023-05-20T14:27:45;2.00;;;1.80;;
7076;SDS011;3579;48.956;9.154;2023-05-20T14:30:11;2.43;;;2.10;;
7076;SDS011;3579;48.956;9.154;2023-05-20T14:32:38;2.13;;;2.00;;
7076;SDS011;3579;48.956;9.154;2023-05-20T14:35:04;2.40;;;1.90;;
7076;SDS011;3579;48.956;9.154;2023-05-20T14:37:30;2.20;;;2.00;;
7076;SDS011;3579;48.956;9.154;2023-05-20T14:39:56;2.20;;;2.00;;
7076;SDS011;3579;48.956;9.154;2023-05-20T14:42:22;2.20;;;2.00;;
7076;SDS011;3579;48.956;9.154;2023-05-20T14:44:48;2.03;;;1.90;;
7076;SDS011;3579;48.956;9.154;2023-05-20T14:47:14;2.47;;;2.27;;
7076;SDS011;3579;48.956;9.154;2023-05-20T14:49:44;2.20;;;2.00;;
7076;SDS011;3579;48.956;9.154;2023-05-20T14:52:11;2.20;;;2.00;;
7076;SDS011;3579;48.956;9.154;2023-05-20T14:54:37;2.27;;;2.07;;
7076;SDS011;3579;48.956;9.154;2023-05-20T14:57:04;2.07;;;1.87;;
7076;SDS011;3579;48.956;9.154;2023-05-20T14:59:31;2.20;;;2.00;;
7076;SDS011;3579;48.956;9.154;2023-05-20T15:01:57;2.33;;;2.10;;
7076;SDS011;3579;48.956;9.154;2023-05-20T15:04:24;2.07;;;1.90;;
7076;SDS011;3579;48.956;9.154;2023-05-20T15:06:50;2.40;;;2.20;;
7076;SDS011;3579;48.956;9.154;2023-05-20T15:09:16;2.37;;;1.90;;
7076;SDS011;3579;48.956;9.154;2023-05-20T15:11:43;2.27;;;2.03;;
7076;SDS011;3579;48.956;9.154;2023-05-20T15:14:09;2.10;;;1.90;;
7076;SDS011;3579;48.956;9.154;2023-05-20T15:16:35;3.10;;;1.93;;
7076;SDS011;3579;48.956;9.154;2023-05-20T15:19:01;3.33;;;2.00;;
7076;SDS011;3579;48.956;9.154;2023-05-20T15:21:27;2.30;;;2.10;;
7076;SDS011;3579;48.956;9.154;2023-05-20T15:23:53;2.27;;;2.07;;
7076;SDS011;3579;48.956;9.154;2023-05-20T15:26:19;1.97;;;1.87;;
7076;SDS011;3579;48.956;9.154;2023-05-20T15:28:46;2.20;;;2.00;;